createdAt,value
2019-03-31T09:44:55.281Z,9.60
2019-03-31T09:50:03.422Z,12.10
2019-03-31T09:55:11.329Z,11.40
2019-03-31T10:00:17.733Z,11.60
2019-03-31T10:05:23.422Z,11.20
2019-03-31T10:10:32.516Z,10.60
2019-03-31T10:15:38.524Z,11.00
2019-03-31T10:20:44.159Z,11.20
2019-03-31T10:25:49.776Z,11.40
2019-03-31T10:30:56.117Z,11.50
2019-03-31T10:36:01.704Z,11.30
2019-03-31T10:41:07.628Z,11.20
2019-03-31T10:46:13.313Z,11.30
2019-03-31T10:51:19.128Z,11.10
2019-03-31T10:56:25.413Z,11.30
2019-03-31T11:01:31.152Z,11.30
2019-03-31T11:06:36.661Z,11.50
2019-03-31T11:11:42.497Z,11.80
2019-03-31T11:16:48.005Z,11.60
2019-03-31T11:22:15.463Z,11.30
2019-03-31T11:27:21.274Z,11.10
2019-03-31T11:32:27.221Z,11.80
2019-03-31T11:37:33.024Z,11.80
2019-03-31T11:42:41.034Z,11.90
2019-03-31T11:47:50.134Z,11.80
2019-03-31T11:52:56.005Z,11.80
2019-03-31T11:58:01.754Z,12.00
2019-03-31T12:03:07.512Z,12.50
2019-03-31T12:08:13.138Z,12.40
2019-03-31T12:13:18.898Z,12.30
2019-03-31T12:18:26.125Z,12.20
2019-03-31T12:23:31.692Z,11.70
2019-03-31T12:28:37.191Z,11.40
2019-03-31T12:33:44.088Z,11.70
2019-03-31T12:38:53.725Z,11.50
2019-03-31T12:44:00.469Z,11.80
2019-03-31T12:49:06.072Z,11.60
2019-03-31T12:54:14.979Z,11.60
2019-03-31T12:59:20.542Z,11.50
2019-03-31T13:04:26.476Z,11.80
2019-03-31T13:09:32.746Z,12.00
2019-03-31T13:14:39.034Z,12.30
2019-03-31T13:19:44.521Z,11.80
2019-03-31T13:24:50.930Z,11.90
2019-03-31T13:29:56.785Z,12.00
2019-03-31T13:35:02.953Z,11.60
2019-03-31T13:40:08.510Z,11.70
2019-03-31T13:45:17.079Z,11.60
2019-03-31T13:50:22.686Z,11.50
2019-03-31T13:55:28.312Z,11.90
2019-03-31T14:00:38.502Z,11.70
2019-03-31T14:05:44.258Z,11.50
2019-03-31T14:10:49.830Z,11.60
2019-03-31T14:15:55.720Z,11.50
2019-03-31T14:21:01.328Z,11.50
2019-03-31T14:26:06.890Z,11.40
2019-03-31T14:31:12.535Z,11.40
2019-03-31T14:36:18.042Z,11.50
2019-03-31T14:41:24.649Z,11.30
2019-03-31T14:46:30.730Z,11.40
2019-03-31T14:51:36.230Z,11.40
2019-03-31T14:56:41.974Z,11.40
2019-03-31T15:01:47.597Z,11.40
2019-03-31T15:06:54.937Z,11.50
2019-03-31T15:12:00.395Z,11.50
2019-03-31T15:17:06.045Z,11.60
2019-03-31T15:22:11.576Z,11.40
2019-03-31T15:27:17.092Z,11.40
2019-03-31T15:32:22.603Z,11.40
2019-03-31T15:37:28.415Z,11.30
2019-03-31T15:42:34.241Z,11.30
2019-03-31T15:47:40.265Z,11.20
2019-03-31T15:52:45.761Z,11.20
2019-03-31T15:57:51.208Z,11.40
2019-03-31T16:02:58.041Z,11.20
2019-03-31T16:08:03.041Z,11.40
2019-03-31T16:13:08.871Z,11.50
2019-03-31T16:18:13.884Z,11.30
2019-03-31T16:23:18.849Z,11.10
2019-03-31T16:28:26.717Z,11.20
2019-03-31T16:33:31.958Z,11.00
2019-03-31T16:38:37.122Z,10.90
2019-03-31T16:43:42.278Z,10.90
2019-03-31T16:48:47.085Z,10.80
2019-03-31T16:53:52.852Z,10.70
2019-03-31T16:58:59.106Z,10.70
2019-03-31T17:04:04.295Z,10.50
2019-03-31T17:09:09.761Z,10.60
2019-03-31T17:14:14.838Z,10.50
2019-03-31T17:19:19.805Z,10.50
2019-03-31T17:24:25.228Z,10.50
2019-03-31T17:29:30.705Z,10.50
2019-03-31T17:34:35.841Z,10.20
2019-03-31T17:39:41.112Z,10.20
2019-03-31T17:44:47.572Z,10.10
2019-03-31T17:49:52.551Z,10.00
2019-03-31T17:54:58.522Z,10.00
2019-03-31T18:00:04.460Z,9.80
2019-03-31T18:05:12.697Z,9.90
2019-03-31T18:10:21.579Z,9.90
2019-03-31T18:15:28.682Z,9.70
2019-03-31T18:20:38.081Z,9.50
2019-03-31T18:25:49.254Z,9.40
2019-03-31T18:30:57.153Z,9.40
2019-03-31T18:36:06.918Z,9.30
2019-03-31T18:41:16.114Z,9.20
2019-03-31T18:46:22.114Z,9.10
2019-03-31T18:51:30.198Z,9.20
2019-03-31T18:56:56.535Z,9.20
2019-03-31T19:02:25.238Z,9.10
2019-03-31T19:07:43.292Z,9.10
2019-03-31T19:13:03.195Z,9.10
2019-03-31T19:18:33.795Z,9.00
2019-03-31T19:23:45.854Z,8.90
2019-03-31T19:29:08.945Z,8.90
2019-03-31T19:34:29.924Z,8.90
2019-03-31T19:39:45.957Z,8.80
2019-03-31T19:45:28.813Z,8.80
2019-03-31T19:50:52.026Z,8.80
2019-03-31T19:56:15.073Z,8.60
2019-03-31T20:01:29.729Z,8.50
2019-03-31T20:06:53.181Z,8.30
2019-03-31T20:12:18.567Z,8.20
2019-03-31T20:17:41.128Z,8.30
2019-03-31T20:23:06.412Z,8.10
2019-03-31T20:28:24.132Z,8.10
2019-03-31T20:33:48.671Z,8.00
2019-03-31T20:39:15.289Z,7.90
2019-03-31T20:44:23.746Z,7.70
2019-03-31T20:49:28.824Z,7.80
2019-03-31T20:54:35.845Z,7.60
2019-03-31T20:59:40.816Z,7.60
2019-03-31T21:04:47.647Z,7.50
2019-03-31T21:09:54.366Z,7.50
2019-03-31T21:14:59.548Z,7.30
2019-03-31T21:20:05.997Z,7.20
2019-03-31T21:25:13.745Z,7.10
2019-03-31T21:30:17.853Z,7.20
2019-03-31T21:35:22.857Z,7.10
2019-03-31T21:40:28.565Z,6.90
2019-03-31T21:45:35.578Z,6.90
2019-03-31T21:50:41.273Z,6.80
2019-03-31T21:55:47.238Z,6.80
2019-03-31T22:00:55.091Z,6.70
2019-03-31T22:06:02.423Z,6.90
2019-03-31T22:11:07.411Z,6.70
2019-03-31T22:16:13.032Z,6.80
2019-03-31T22:21:19.512Z,6.90
2019-03-31T22:26:26.554Z,6.80
2019-03-31T22:31:32.594Z,6.50
2019-03-31T22:36:39.242Z,6.40
2019-03-31T22:41:45.973Z,6.50
2019-03-31T22:46:54.507Z,6.50
2019-03-31T22:51:59.546Z,6.30
2019-03-31T22:57:07.149Z,6.20
2019-03-31T23:02:12.185Z,6.30
2019-03-31T23:07:19.972Z,6.20
2019-03-31T23:12:27.292Z,6.20
2019-03-31T23:17:32.286Z,6.20
2019-03-31T23:22:40.965Z,6.10
2019-03-31T23:27:46.139Z,5.90
2019-03-31T23:32:52.666Z,5.80
2019-03-31T23:37:57.687Z,6.00
2019-03-31T23:43:03.915Z,5.60
2019-03-31T23:48:08.956Z,5.80
2019-03-31T23:53:15.481Z,5.60
2019-03-31T23:58:22.142Z,5.40
